createdAt,value
2017-07-27T00:02:22.100Z,19.85
2017-07-27T00:04:53.759Z,19.88
2017-07-27T00:07:25.066Z,19.80
2017-07-27T00:09:56.442Z,19.83
2017-07-27T00:12:27.722Z,19.87
2017-07-27T00:14:59.466Z,19.84
2017-07-27T00:17:30.730Z,19.90
2017-07-27T00:20:04.502Z,19.92
2017-07-27T00:22:36.139Z,19.96
2017-07-27T00:25:07.418Z,19.99
2017-07-27T00:27:38.969Z,20.01
2017-07-27T00:30:10.335Z,20.01
2017-07-27T00:32:41.644Z,20.02
2017-07-27T00:35:13.318Z,20.04
2017-07-27T00:37:44.599Z,20.06
2017-07-27T00:40:17.773Z,20.11
2017-07-27T00:45:28.667Z,20.11
2017-07-27T00:47:59.926Z,20.11
2017-07-27T00:50:31.638Z,20.11
2017-07-27T00:53:02.988Z,20.08
2017-07-27T00:55:34.289Z,20.09
2017-07-27T00:58:13.047Z,20.09
2017-07-27T01:00:44.378Z,20.03
2017-07-27T01:03:17.124Z,20.10
2017-07-27T01:05:49.236Z,20.11
2017-07-27T01:08:20.967Z,20.10
2017-07-27T01:10:52.962Z,20.07
2017-07-27T01:13:24.303Z,20.03
2017-07-27T01:15:55.803Z,20.05
2017-07-27T01:18:27.926Z,20.03
2017-07-27T01:20:59.195Z,20.00
2017-07-27T01:23:30.460Z,19.94
2017-07-27T01:26:02.297Z,19.99
2017-07-27T01:28:33.612Z,20.02
2017-07-27T01:31:09.888Z,20.04
2017-07-27T01:33:41.442Z,19.99
2017-07-27T01:36:13.294Z,19.96
2017-07-27T01:38:44.992Z,19.96
2017-07-27T01:41:16.435Z,19.98
2017-07-27T01:43:47.724Z,19.82
2017-07-27T01:46:19.447Z,19.73
2017-07-27T01:48:50.766Z,19.73
2017-07-27T01:51:22.100Z,19.72
2017-07-27T01:53:53.425Z,19.69
2017-07-27T01:56:25.241Z,19.65
2017-07-27T01:58:57.047Z,19.56
2017-07-27T02:01:28.342Z,19.51
2017-07-27T02:03:59.663Z,19.49
2017-07-27T02:06:31.368Z,19.50
2017-07-27T02:09:02.732Z,19.47
2017-07-27T02:11:34.050Z,19.27
2017-07-27T02:14:06.963Z,19.26
2017-07-27T02:16:38.285Z,19.26
2017-07-27T02:19:09.611Z,19.26
2017-07-27T02:21:40.972Z,19.25
2017-07-27T02:24:12.381Z,19.28
2017-07-27T02:26:44.058Z,19.31
2017-07-27T02:29:15.414Z,19.19
2017-07-27T02:31:46.734Z,19.18
2017-07-27T02:34:18.567Z,19.12
2017-07-27T02:36:49.866Z,19.08
2017-07-27T02:39:22.340Z,19.01
2017-07-27T02:41:53.694Z,19.00
2017-07-27T02:44:24.986Z,18.88
2017-07-27T02:46:56.572Z,18.92
2017-07-27T02:49:27.850Z,18.98
2017-07-27T02:51:59.152Z,18.98
2017-07-27T02:54:30.829Z,18.96
2017-07-27T02:57:02.144Z,18.93
2017-07-27T02:59:33.749Z,18.97
2017-07-27T03:02:06.344Z,18.91
2017-07-27T03:04:37.680Z,18.91
2017-07-27T03:07:09.249Z,18.97
2017-07-27T03:09:40.998Z,18.85
2017-07-27T03:12:13.283Z,18.89
2017-07-27T03:14:44.588Z,18.87
2017-07-27T03:17:16.370Z,18.82
2017-07-27T03:19:47.678Z,18.83
2017-07-27T03:22:19.512Z,18.77
2017-07-27T03:24:51.847Z,18.71
2017-07-27T03:27:23.145Z,18.75
2017-07-27T03:29:54.420Z,18.71
2017-07-27T03:32:25.734Z,18.62
2017-07-27T03:34:57.427Z,18.67
2017-07-27T03:37:28.717Z,18.71
2017-07-27T03:40:00.325Z,18.69
2017-07-27T03:42:31.655Z,18.72
2017-07-27T03:45:02.986Z,18.68
2017-07-27T03:47:34.279Z,18.70
2017-07-27T03:50:06.736Z,18.72
2017-07-27T03:52:38.460Z,18.77
2017-07-27T03:55:09.946Z,18.68
2017-07-27T03:57:41.273Z,18.60
2017-07-27T04:00:14.028Z,18.65
2017-07-27T04:02:45.337Z,18.72
2017-07-27T04:05:16.909Z,18.76
2017-07-27T04:07:48.628Z,18.74
2017-07-27T04:10:21.972Z,18.70
2017-07-27T04:12:53.726Z,18.69
2017-07-27T04:15:25.048Z,18.65
2017-07-27T04:17:56.397Z,18.70
2017-07-27T04:20:28.159Z,18.66
2017-07-27T04:22:59.453Z,18.64
2017-07-27T04:25:30.747Z,18.61
2017-07-27T04:28:03.821Z,18.65
2017-07-27T04:30:35.114Z,18.63
2017-07-27T04:33:06.424Z,18.66
2017-07-27T04:35:38.146Z,18.66
2017-07-27T04:38:10.288Z,18.70
2017-07-27T04:40:41.562Z,18.62
2017-07-27T04:43:12.944Z,18.59
2017-07-27T04:45:44.243Z,18.65
2017-07-27T04:48:16.725Z,18.64
2017-07-27T04:50:48.001Z,18.65
2017-07-27T04:53:19.288Z,18.69
2017-07-27T04:55:50.884Z,18.72
2017-07-27T04:58:22.227Z,18.50
2017-07-27T05:00:53.507Z,18.60
2017-07-27T05:03:25.299Z,18.52
2017-07-27T05:05:56.594Z,18.61
2017-07-27T05:08:28.154Z,18.64
2017-07-27T05:10:59.458Z,18.66
2017-07-27T05:13:31.829Z,18.79
2017-07-27T05:18:49.069Z,18.79
2017-07-27T05:21:20.384Z,18.71
2017-07-27T05:23:52.011Z,18.69
2017-07-27T05:26:23.316Z,18.85
2017-07-27T05:28:54.731Z,18.88
2017-07-27T05:31:26.052Z,18.86
2017-07-27T05:33:59.480Z,18.88
2017-07-27T05:36:30.810Z,18.87
2017-07-27T05:39:02.375Z,18.81
2017-07-27T05:41:34.106Z,18.87
2017-07-27T05:44:07.162Z,18.91
2017-07-27T05:46:38.471Z,19.10
2017-07-27T05:49:10.058Z,19.11
2017-07-27T05:51:41.332Z,19.11
2017-07-27T05:54:16.162Z,19.15
2017-07-27T05:56:47.517Z,19.14
2017-07-27T05:59:19.685Z,19.19
2017-07-27T06:01:50.993Z,19.25
2017-07-27T06:04:22.851Z,19.28
2017-07-27T06:06:54.126Z,19.30
2017-07-27T06:09:25.425Z,19.27
2017-07-27T06:11:57.197Z,19.19
2017-07-27T06:14:28.691Z,19.29
2017-07-27T06:16:59.979Z,19.32
2017-07-27T06:19:31.327Z,19.41
2017-07-27T06:22:03.759Z,19.58
2017-07-27T06:24:35.394Z,19.62
2017-07-27T06:27:06.733Z,19.52
2017-07-27T06:29:38.016Z,19.48
2017-07-27T06:32:10.072Z,19.26
2017-07-27T06:34:41.363Z,19.39
2017-07-27T06:37:12.706Z,19.29
2017-07-27T06:39:45.563Z,19.33
2017-07-27T06:42:17.480Z,19.43
2017-07-27T06:44:48.766Z,19.50
2017-07-27T06:47:20.517Z,19.42
2017-07-27T06:49:51.877Z,19.26
2017-07-27T06:52:23.216Z,19.25
2017-07-27T06:54:54.592Z,19.33
2017-07-27T06:57:26.720Z,19.43
2017-07-27T06:59:58.164Z,19.45
2017-07-27T07:02:29.910Z,19.65
2017-07-27T07:05:01.203Z,19.82
2017-07-27T07:07:32.579Z,20.04
2017-07-27T07:10:07.170Z,20.31
2017-07-27T07:12:39.229Z,20.32
2017-07-27T07:15:10.894Z,20.32
2017-07-27T07:17:42.147Z,20.29
2017-07-27T07:20:13.767Z,20.35
2017-07-27T07:22:45.728Z,20.26
2017-07-27T07:25:17.083Z,20.30
2017-07-27T07:27:48.400Z,20.28
2017-07-27T07:30:20.488Z,20.14
2017-07-27T07:32:51.782Z,20.58
2017-07-27T07:35:23.139Z,20.78
2017-07-27T07:37:54.970Z,20.70
2017-07-27T07:40:26.641Z,20.80
2017-07-27T07:42:57.961Z,20.91
2017-07-27T07:45:29.270Z,20.89
2017-07-27T07:48:00.578Z,21.01
2017-07-27T07:50:32.240Z,21.21
2017-07-27T07:53:03.549Z,21.00
2017-07-27T07:55:35.446Z,21.41
2017-07-27T07:58:11.111Z,21.64
2017-07-27T08:03:39.453Z,22.39
2017-07-27T08:06:12.346Z,22.06
2017-07-27T08:08:53.019Z,22.24
2017-07-27T08:11:25.154Z,22.84
2017-07-27T08:13:57.507Z,22.75
2017-07-27T08:16:43.156Z,22.77
2017-07-27T08:19:14.800Z,23.22
2017-07-27T08:21:46.151Z,23.12
2017-07-27T08:24:17.527Z,23.53
2017-07-27T08:26:49.172Z,23.46
2017-07-27T08:29:20.652Z,23.95
2017-07-27T08:34:47.120Z,23.87
2017-07-27T08:37:19.288Z,24.14
2017-07-27T08:39:51.016Z,24.19
2017-07-27T08:42:22.623Z,24.06
2017-07-27T08:44:54.184Z,24.38
2017-07-27T08:47:25.565Z,24.76
2017-07-27T08:49:56.965Z,24.74
2017-07-27T08:52:32.417Z,24.98
2017-07-27T08:58:00.934Z,25.00
2017-07-27T09:00:32.735Z,24.96
2017-07-27T09:03:05.223Z,24.66
2017-07-27T09:05:39.992Z,24.58
2017-07-27T09:08:12.155Z,24.10
2017-07-27T09:10:50.141Z,24.25
2017-07-27T09:13:22.088Z,24.36
2017-07-27T09:15:53.649Z,24.23
2017-07-27T09:18:29.629Z,24.52
2017-07-27T09:23:55.973Z,24.58
2017-07-27T09:26:27.437Z,24.96
2017-07-27T09:28:58.777Z,24.57
2017-07-27T09:31:30.539Z,24.96
2017-07-27T09:34:04.142Z,25.13
2017-07-27T09:36:40.129Z,24.78
2017-07-27T09:39:13.898Z,24.94
2017-07-27T09:41:45.461Z,24.86
2017-07-27T09:44:17.973Z,24.79
2017-07-27T09:46:50.321Z,25.11
2017-07-27T09:49:22.147Z,25.14
2017-07-27T09:51:54.080Z,25.06
2017-07-27T09:57:32.738Z,23.94
2017-07-27T10:03:08.176Z,23.82
2017-07-27T10:05:40.011Z,23.89
2017-07-27T10:08:14.113Z,24.18
2017-07-27T10:10:45.431Z,24.26
2017-07-27T10:13:16.780Z,24.60
2017-07-27T10:15:48.484Z,24.67
2017-07-27T10:18:22.081Z,24.59
2017-07-27T10:21:00.004Z,24.95
2017-07-27T10:23:32.123Z,24.86
2017-07-27T10:26:04.909Z,24.79
2017-07-27T10:28:36.303Z,24.67
2017-07-27T10:31:07.718Z,24.58
2017-07-27T10:33:39.642Z,24.62
2017-07-27T10:36:11.173Z,24.77
2017-07-27T10:38:42.548Z,24.95
2017-07-27T10:41:14.197Z,24.65
2017-07-27T10:43:47.527Z,24.77
2017-07-27T10:46:21.892Z,24.83
2017-07-27T10:48:58.018Z,24.50
2017-07-27T10:51:32.045Z,24.62
2017-07-27T10:54:07.714Z,24.45
2017-07-27T10:56:39.354Z,24.37
2017-07-27T10:59:11.068Z,24.18
2017-07-27T11:01:42.477Z,24.47
2017-07-27T11:04:15.279Z,24.60
2017-07-27T11:06:47.672Z,24.10
2017-07-27T11:09:19.384Z,24.01
2017-07-27T11:11:50.851Z,23.96
2017-07-27T11:14:22.695Z,23.98
2017-07-27T11:16:54.173Z,24.22
2017-07-27T11:19:26.060Z,24.22
2017-07-27T11:21:58.073Z,24.58
2017-07-27T11:24:29.785Z,24.92
2017-07-27T11:27:05.638Z,25.75
2017-07-27T11:29:38.816Z,26.33
2017-07-27T11:32:14.451Z,26.31
2017-07-27T11:34:51.450Z,26.71
2017-07-27T11:37:23.647Z,26.42
2017-07-27T11:39:56.794Z,26.87
2017-07-27T11:42:30.343Z,26.88
2017-07-27T11:45:09.380Z,26.55
2017-07-27T11:47:41.840Z,26.51
2017-07-27T11:50:23.662Z,26.00
2017-07-27T11:52:59.132Z,25.55
2017-07-27T11:55:42.698Z,25.17
2017-07-27T11:58:22.374Z,24.81
2017-07-27T12:04:17.480Z,25.50
2017-07-27T12:10:06.321Z,26.19
2017-07-27T12:12:58.546Z,26.96
2017-07-27T12:18:23.728Z,26.29
2017-07-27T12:21:06.787Z,26.55
2017-07-27T12:23:56.625Z,26.87
2017-07-27T12:26:48.890Z,27.80
2017-07-27T12:35:50.010Z,28.19
2017-07-27T12:45:05.934Z,31.63
2017-07-27T12:52:46.029Z,30.74
2017-07-27T13:04:17.422Z,29.34
2017-07-27T13:07:07.631Z,29.25
2017-07-27T13:09:42.818Z,30.15
2017-07-27T13:18:14.363Z,29.44
2017-07-27T13:20:57.906Z,28.54
2017-07-27T13:23:34.448Z,29.78
2017-07-27T13:26:20.297Z,31.69
2017-07-27T13:29:02.357Z,31.24
2017-07-27T13:31:45.822Z,30.24
2017-07-27T13:34:18.035Z,29.87
2017-07-27T13:39:21.064Z,32.12
2017-07-27T13:41:52.739Z,32.82
2017-07-27T13:44:24.516Z,33.08
2017-07-27T13:46:56.176Z,34.01
2017-07-27T13:49:27.491Z,32.87
2017-07-27T13:52:00.583Z,34.41
2017-07-27T13:54:35.227Z,34.65
2017-07-27T14:00:05.249Z,34.06
2017-07-27T14:02:36.652Z,34.94
2017-07-27T14:05:08.405Z,35.93
2017-07-27T14:07:39.697Z,34.29
2017-07-27T14:10:11.054Z,31.70
2017-07-27T14:12:42.378Z,31.28
2017-07-27T14:15:13.709Z,32.46
2017-07-27T14:17:45.313Z,32.57
2017-07-27T14:20:16.656Z,31.62
2017-07-27T14:22:47.997Z,31.56
2017-07-27T14:25:20.563Z,30.81
2017-07-27T14:27:51.924Z,30.13
2017-07-27T14:30:23.333Z,29.10
2017-07-27T14:32:54.969Z,28.59
2017-07-27T14:35:26.318Z,28.76
2017-07-27T14:37:58.089Z,28.79
2017-07-27T14:40:29.432Z,28.52
2017-07-27T14:43:00.757Z,28.88
2017-07-27T14:45:32.441Z,29.57
2017-07-27T14:48:04.400Z,29.51
2017-07-27T14:50:37.018Z,29.31
2017-07-27T14:53:08.747Z,29.47
2017-07-27T14:55:40.091Z,29.36
2017-07-27T14:58:16.061Z,29.07
2017-07-27T15:00:48.708Z,29.12
2017-07-27T15:03:20.170Z,29.53
2017-07-27T15:05:51.825Z,29.29
2017-07-27T15:08:23.218Z,28.70
2017-07-27T15:10:55.903Z,28.40
2017-07-27T15:13:27.444Z,28.53
2017-07-27T15:18:38.822Z,28.54
2017-07-27T15:21:10.251Z,28.55
2017-07-27T15:23:42.310Z,28.20
2017-07-27T15:26:13.706Z,27.47
2017-07-27T15:28:45.090Z,27.16
2017-07-27T15:31:17.099Z,26.75
2017-07-27T15:33:48.580Z,26.35
2017-07-27T15:36:19.977Z,25.76
2017-07-27T15:38:51.709Z,26.01
2017-07-27T15:41:23.195Z,26.29
2017-07-27T15:43:55.115Z,26.19
2017-07-27T15:46:26.473Z,26.17
2017-07-27T15:48:57.891Z,26.21
2017-07-27T15:51:29.525Z,26.03
2017-07-27T15:54:01.151Z,26.00
2017-07-27T16:02:24.223Z,25.61
2017-07-27T16:04:55.862Z,25.61
2017-07-27T16:07:27.301Z,25.58
2017-07-27T16:09:58.988Z,25.68
2017-07-27T16:12:30.364Z,25.55
2017-07-27T16:15:01.708Z,25.51
2017-07-27T16:17:33.071Z,25.30
2017-07-27T16:20:10.645Z,25.13
2017-07-27T16:22:42.152Z,25.13
2017-07-27T16:25:13.870Z,24.89
2017-07-27T16:27:45.274Z,25.01
2017-07-27T16:30:17.699Z,25.02
2017-07-27T16:32:49.245Z,24.87
2017-07-27T16:35:20.900Z,24.83
2017-07-27T16:37:52.237Z,24.94
2017-07-27T16:40:25.251Z,24.82
2017-07-27T16:42:57.010Z,24.95
2017-07-27T16:45:28.510Z,25.01
2017-07-27T16:48:00.744Z,24.94
2017-07-27T16:50:32.782Z,24.88
2017-07-27T16:53:06.551Z,24.90
2017-07-27T16:55:37.903Z,24.88
2017-07-27T16:58:09.635Z,24.73
2017-07-27T17:00:40.936Z,24.69
2017-07-27T17:03:13.213Z,24.61
2017-07-27T17:05:44.840Z,24.55
2017-07-27T17:08:17.953Z,24.49
2017-07-27T17:10:49.444Z,24.53
2017-07-27T17:13:22.240Z,24.47
2017-07-27T17:15:53.572Z,24.38
2017-07-27T17:18:29.835Z,24.43
2017-07-27T17:21:01.556Z,24.34
2017-07-27T17:23:33.391Z,24.23
2017-07-27T17:26:07.443Z,24.28
2017-07-27T17:28:39.091Z,24.26
2017-07-27T17:31:11.377Z,24.23
2017-07-27T17:33:42.885Z,24.17
2017-07-27T17:36:17.165Z,24.14
2017-07-27T17:38:49.161Z,24.16
2017-07-27T17:41:20.606Z,24.13
2017-07-27T17:43:52.392Z,24.06
2017-07-27T17:46:23.733Z,24.05
2017-07-27T17:48:55.065Z,23.97
2017-07-27T17:51:26.714Z,23.77
2017-07-27T17:53:58.080Z,23.79
2017-07-27T17:56:33.292Z,23.78
2017-07-27T17:59:08.224Z,23.76
2017-07-27T18:01:41.818Z,23.80
2017-07-27T18:04:18.582Z,23.78
2017-07-27T18:06:50.196Z,23.58
2017-07-27T18:09:21.526Z,23.08
2017-07-27T18:11:54.156Z,22.74
2017-07-27T18:14:26.843Z,22.62
2017-07-27T18:17:03.233Z,22.24
2017-07-27T18:19:35.534Z,22.14
2017-07-27T18:22:10.976Z,22.08
2017-07-27T18:24:49.149Z,22.02
2017-07-27T18:27:29.195Z,21.96
2017-07-27T18:30:02.494Z,21.76
2017-07-27T18:32:49.185Z,21.79
2017-07-27T18:35:22.138Z,21.67
2017-07-27T18:38:01.719Z,21.61
2017-07-27T18:40:37.007Z,21.61
2017-07-27T18:43:09.651Z,21.67
2017-07-27T18:45:43.637Z,21.55
2017-07-27T18:48:20.781Z,21.53
2017-07-27T18:53:49.089Z,21.39
2017-07-27T18:56:23.489Z,21.40
2017-07-27T18:58:57.829Z,21.47
2017-07-27T19:01:31.099Z,21.40
2017-07-27T19:04:05.666Z,21.36
2017-07-27T19:06:37.659Z,21.20
2017-07-27T19:09:11.438Z,21.15
2017-07-27T19:11:44.208Z,21.19
2017-07-27T19:14:18.485Z,21.15
2017-07-27T19:16:50.587Z,21.13
2017-07-27T19:19:23.303Z,21.12
2017-07-27T19:21:55.772Z,21.13
2017-07-27T19:24:28.028Z,21.09
2017-07-27T19:26:59.881Z,21.15
2017-07-27T19:29:31.553Z,21.17
2017-07-27T19:32:03.948Z,21.22
2017-07-27T19:34:36.044Z,21.23
2017-07-27T19:37:07.592Z,21.20
2017-07-27T19:39:39.004Z,21.20
2017-07-27T19:42:11.419Z,21.17
2017-07-27T19:44:42.994Z,21.14
2017-07-27T19:47:15.985Z,21.17
2017-07-27T19:49:50.788Z,21.19
2017-07-27T19:52:25.328Z,21.08
2017-07-27T19:54:57.903Z,20.99
2017-07-27T19:57:31.668Z,21.09
2017-07-27T20:00:08.528Z,21.13
2017-07-27T20:02:40.626Z,21.14
2017-07-27T20:05:13.068Z,21.09
2017-07-27T20:07:44.442Z,21.01
2017-07-27T20:10:17.061Z,20.94
2017-07-27T20:12:48.503Z,20.85
2017-07-27T20:18:17.608Z,20.74
2017-07-27T20:20:50.409Z,20.81
2017-07-27T20:23:22.707Z,20.78
2017-07-27T20:25:54.178Z,20.73
2017-07-27T20:28:26.927Z,20.78
2017-07-27T20:31:00.213Z,20.78
2017-07-27T20:33:32.658Z,20.69
2017-07-27T20:36:05.787Z,20.74
2017-07-27T20:38:37.990Z,20.78
2017-07-27T20:41:11.101Z,20.78
2017-07-27T20:43:44.932Z,20.70
2017-07-27T20:46:16.983Z,20.58
2017-07-27T20:48:48.916Z,20.65
2017-07-27T20:51:20.645Z,20.64
2017-07-27T20:53:52.771Z,20.65
2017-07-27T20:56:26.801Z,20.67
2017-07-27T20:59:00.030Z,20.71
2017-07-27T21:01:32.767Z,20.74
2017-07-27T21:04:05.636Z,20.77
2017-07-27T21:06:37.076Z,20.80
2017-07-27T21:09:09.013Z,20.79
2017-07-27T21:11:40.505Z,20.82
2017-07-27T21:14:15.006Z,20.82
2017-07-27T21:16:48.044Z,20.84
2017-07-27T21:19:20.795Z,20.74
2017-07-27T21:21:52.857Z,20.73
2017-07-27T21:24:25.337Z,20.62
2017-07-27T21:26:58.315Z,20.58
2017-07-27T21:29:30.537Z,20.57
2017-07-27T21:32:03.593Z,20.53
2017-07-27T21:34:35.415Z,20.38
2017-07-27T21:37:06.967Z,20.32
2017-07-27T21:39:39.049Z,20.33
2017-07-27T21:42:13.373Z,20.33
2017-07-27T21:44:48.048Z,20.31
2017-07-27T21:47:23.071Z,20.33
2017-07-27T21:49:58.777Z,20.16
2017-07-27T21:52:32.419Z,20.25
2017-07-27T21:57:59.375Z,20.28
2017-07-27T22:00:30.978Z,20.29
2017-07-27T22:03:02.427Z,20.24
2017-07-27T22:05:36.598Z,20.28
2017-07-27T22:08:10.459Z,20.33
2017-07-27T22:10:44.969Z,20.34
2017-07-27T22:13:16.547Z,20.36
2017-07-27T22:15:48.377Z,20.39
2017-07-27T22:18:21.251Z,20.38
2017-07-27T22:23:25.102Z,20.33
2017-07-27T22:25:56.851Z,20.32
2017-07-27T22:28:29.019Z,20.32
2017-07-27T22:31:01.060Z,20.28
2017-07-27T22:33:32.485Z,20.29
2017-07-27T22:36:04.533Z,20.31
2017-07-27T22:38:36.422Z,20.28
2017-07-27T22:41:08.048Z,20.27
2017-07-27T22:43:39.753Z,20.27
2017-07-27T22:46:11.526Z,20.21
2017-07-27T22:48:43.123Z,20.20
2017-07-27T22:51:14.587Z,20.09
2017-07-27T22:53:46.265Z,20.09
2017-07-27T22:56:17.549Z,20.08
2017-07-27T22:58:49.088Z,20.04
2017-07-27T23:01:22.870Z,19.95
2017-07-27T23:03:54.310Z,19.95
2017-07-27T23:06:25.773Z,19.91
2017-07-27T23:08:57.598Z,19.94
2017-07-27T23:11:28.924Z,19.97
2017-07-27T23:14:00.334Z,19.95
2017-07-27T23:16:32.082Z,19.83
2017-07-27T23:19:03.370Z,19.86
2017-07-27T23:21:34.731Z,19.86
2017-07-27T23:24:06.453Z,19.78
2017-07-27T23:26:37.735Z,19.74
2017-07-27T23:29:09.351Z,19.80
2017-07-27T23:31:40.618Z,19.83
2017-07-27T23:34:11.899Z,19.82
2017-07-27T23:36:43.185Z,19.81
2017-07-27T23:39:14.524Z,19.79
2017-07-27T23:41:46.203Z,19.81
2017-07-27T23:44:17.482Z,19.76
2017-07-27T23:46:48.857Z,19.77
2017-07-27T23:49:20.666Z,19.73
2017-07-27T23:51:53.004Z,19.68
2017-07-27T23:54:24.440Z,19.68
2017-07-27T23:58:25.548Z,19.63
